createdAt,value
2023-08-13T00:01:56.945Z,20.66
2023-08-13T00:04:24.822Z,20.68
2023-08-13T00:06:53.107Z,20.64
2023-08-13T00:09:21.462Z,20.60
2023-08-13T00:11:50.118Z,20.57
2023-08-13T00:14:19.871Z,20.54
2023-08-13T00:16:48.649Z,20.51
2023-08-13T00:19:16.402Z,20.46
2023-08-13T00:21:54.780Z,20.37
2023-08-13T00:24:31.046Z,20.34
2023-08-13T00:26:58.812Z,20.31
2023-08-13T00:29:26.086Z,20.27
2023-08-13T00:31:56.316Z,20.27
2023-08-13T00:34:23.801Z,20.25
2023-08-13T00:36:51.153Z,20.23
2023-08-13T00:39:19.369Z,20.15
2023-08-13T00:41:46.649Z,20.09
2023-08-13T00:44:14.208Z,20.05
2023-08-13T00:46:41.753Z,20.00
2023-08-13T00:51:41.728Z,19.96
2023-08-13T00:54:09.696Z,19.93
2023-08-13T00:56:37.578Z,19.90
2023-08-13T00:59:05.965Z,19.87
2023-08-13T01:01:34.347Z,19.82
2023-08-13T01:04:01.814Z,19.79
2023-08-13T01:06:50.823Z,19.75
2023-08-13T01:09:27.510Z,19.71
2023-08-13T01:12:04.503Z,19.70
2023-08-13T01:14:53.869Z,19.63
2023-08-13T01:17:23.400Z,19.60
2023-08-13T01:19:50.770Z,19.59
2023-08-13T01:22:26.025Z,19.59
2023-08-13T01:24:53.228Z,19.57
2023-08-13T01:27:33.996Z,19.54
2023-08-13T01:30:15.782Z,19.53
2023-08-13T01:32:59.996Z,19.55
2023-08-13T01:35:27.761Z,19.56
2023-08-13T01:37:56.180Z,19.55
2023-08-13T01:40:23.666Z,19.57
2023-08-13T01:42:50.994Z,19.59
2023-08-13T01:45:18.730Z,19.61
2023-08-13T01:47:46.930Z,19.65
2023-08-13T01:50:14.646Z,19.67
2023-08-13T01:52:42.064Z,19.66
2023-08-13T01:55:09.623Z,19.69
2023-08-13T01:57:36.938Z,19.71
2023-08-13T02:00:05.223Z,19.77
2023-08-13T02:02:32.768Z,19.78
2023-08-13T02:05:00.348Z,19.80
2023-08-13T02:07:27.952Z,19.80
2023-08-13T02:09:55.376Z,19.78
2023-08-13T02:12:23.059Z,19.75
2023-08-13T02:14:51.137Z,19.75
2023-08-13T02:17:18.938Z,19.73
2023-08-13T02:19:46.468Z,19.70
2023-08-13T02:22:14.073Z,19.71
2023-08-13T02:24:41.873Z,19.69
2023-08-13T02:27:09.207Z,19.68
2023-08-13T02:29:36.465Z,19.62
2023-08-13T02:32:06.175Z,19.59
2023-08-13T02:34:34.965Z,19.58
2023-08-13T02:37:02.243Z,19.56
2023-08-13T02:39:31.818Z,19.52
2023-08-13T02:41:59.099Z,19.44
2023-08-13T02:44:27.762Z,19.40
2023-08-13T02:46:55.168Z,19.35
2023-08-13T02:49:22.474Z,19.31
2023-08-13T02:51:49.816Z,19.28
2023-08-13T02:54:17.291Z,19.22
2023-08-13T02:56:44.633Z,19.17
2023-08-13T02:59:11.945Z,19.12
2023-08-13T03:01:40.093Z,19.07
2023-08-13T03:04:07.917Z,19.03
2023-08-13T03:06:35.520Z,19.03
2023-08-13T03:09:02.877Z,19.01
2023-08-13T03:11:30.217Z,18.99
2023-08-13T03:13:57.601Z,18.95
2023-08-13T03:16:25.340Z,18.94
2023-08-13T03:18:52.667Z,18.90
2023-08-13T03:25:01.010Z,18.78
2023-08-13T03:27:28.364Z,18.76
2023-08-13T03:29:55.930Z,18.76
2023-08-13T03:32:23.208Z,18.73
2023-08-13T03:34:50.527Z,18.70
2023-08-13T03:37:18.201Z,18.67
2023-08-13T03:39:45.535Z,18.66
2023-08-13T03:42:13.175Z,18.65
2023-08-13T03:44:42.378Z,18.64
2023-08-13T03:47:09.951Z,18.63
2023-08-13T03:49:37.574Z,18.62
2023-08-13T03:52:05.021Z,18.62
2023-08-13T03:54:33.137Z,18.61
2023-08-13T03:57:00.414Z,18.60
2023-08-13T03:59:27.812Z,18.60
2023-08-13T04:01:55.204Z,18.60
2023-08-13T04:04:22.636Z,18.62
2023-08-13T04:06:50.477Z,18.62
2023-08-13T04:09:17.763Z,18.63
2023-08-13T04:11:45.403Z,18.61
2023-08-13T04:14:15.103Z,18.63
2023-08-13T04:16:42.383Z,18.64
2023-08-13T04:19:15.953Z,18.67
2023-08-13T04:21:44.626Z,18.66
2023-08-13T04:24:12.216Z,18.68
2023-08-13T04:26:39.651Z,18.74
2023-08-13T04:29:07.137Z,18.76
2023-08-13T04:31:34.558Z,18.81
2023-08-13T04:34:02.004Z,18.85
2023-08-13T04:36:29.738Z,18.85
2023-08-13T04:38:57.149Z,18.89
2023-08-13T04:41:24.505Z,18.90
2023-08-13T04:43:51.854Z,18.94
2023-08-13T04:46:19.169Z,18.95
2023-08-13T04:48:50.026Z,18.99
2023-08-13T04:51:18.045Z,18.98
2023-08-13T04:53:46.122Z,19.05
2023-08-13T04:56:13.480Z,19.14
2023-08-13T04:58:41.202Z,19.18
2023-08-13T05:01:08.593Z,19.30
2023-08-13T05:03:35.841Z,19.28
2023-08-13T05:06:03.224Z,19.36
2023-08-13T05:08:30.580Z,19.40
2023-08-13T05:10:57.956Z,19.41
2023-08-13T05:13:25.293Z,19.54
2023-08-13T05:15:52.629Z,19.56
2023-08-13T05:18:20.026Z,19.61
2023-08-13T05:20:47.985Z,19.60
2023-08-13T05:26:57.149Z,19.84
2023-08-13T05:29:24.504Z,19.92
2023-08-13T05:31:51.883Z,20.08
2023-08-13T05:34:19.326Z,20.17
2023-08-13T05:36:46.619Z,20.24
2023-08-13T05:39:14.033Z,20.32
2023-08-13T05:41:41.294Z,20.39
2023-08-13T05:44:08.577Z,20.47
2023-08-13T05:46:35.988Z,20.55
2023-08-13T05:49:03.421Z,20.50
2023-08-13T05:51:31.145Z,20.53
2023-08-13T05:53:58.810Z,20.60
2023-08-13T05:56:26.214Z,20.65
2023-08-13T05:58:53.570Z,20.72
2023-08-13T06:01:21.536Z,20.76
2023-08-13T06:03:48.930Z,20.71
2023-08-13T06:06:16.835Z,20.71
2023-08-13T06:08:44.363Z,20.75
2023-08-13T06:11:11.704Z,20.74
2023-08-13T06:13:40.306Z,20.72
2023-08-13T06:16:08.179Z,20.73
2023-08-13T06:18:35.805Z,20.69
2023-08-13T06:21:05.313Z,20.65
2023-08-13T06:23:32.698Z,20.65
2023-08-13T06:26:00.230Z,20.67
2023-08-13T06:28:27.757Z,20.69
2023-08-13T06:30:55.613Z,20.70
2023-08-13T06:33:22.983Z,20.85
2023-08-13T06:35:50.318Z,20.98
2023-08-13T06:38:18.321Z,21.29
2023-08-13T06:40:46.059Z,21.57
2023-08-13T06:43:13.710Z,21.80
2023-08-13T06:45:41.104Z,21.95
2023-08-13T06:48:10.049Z,22.09
2023-08-13T06:50:38.108Z,22.28
2023-08-13T06:53:05.594Z,22.08
2023-08-13T06:55:33.012Z,22.34
2023-08-13T06:58:00.363Z,22.54
2023-08-13T07:00:35.537Z,22.58
2023-08-13T07:03:07.459Z,22.53
2023-08-13T07:06:00.659Z,22.46
2023-08-13T07:08:28.078Z,22.40
2023-08-13T07:10:55.551Z,22.31
2023-08-13T07:13:22.987Z,22.19
2023-08-13T07:15:50.486Z,22.12
2023-08-13T07:18:17.856Z,22.02
2023-08-13T07:20:45.170Z,22.07
2023-08-13T07:23:13.071Z,22.28
2023-08-13T07:25:40.454Z,22.31
2023-08-13T07:30:59.918Z,22.33
2023-08-13T07:33:27.279Z,22.62
2023-08-13T07:35:54.597Z,22.78
2023-08-13T07:38:21.971Z,22.97
2023-08-13T07:40:49.495Z,23.04
2023-08-13T07:43:16.847Z,22.83
2023-08-13T07:45:45.028Z,22.91
2023-08-13T07:48:12.544Z,23.07
2023-08-13T07:50:41.277Z,23.04
2023-08-13T07:53:09.077Z,23.13
2023-08-13T07:55:36.532Z,23.34
2023-08-13T07:58:04.260Z,23.29
2023-08-13T08:00:32.046Z,23.55
2023-08-13T08:02:59.603Z,23.74
2023-08-13T08:05:27.115Z,23.78
2023-08-13T08:07:54.492Z,23.87
2023-08-13T08:10:21.948Z,23.67
2023-08-13T08:12:49.364Z,23.68
2023-08-13T08:15:16.688Z,23.66
2023-08-13T08:17:44.129Z,23.19
2023-08-13T08:20:11.715Z,23.28
2023-08-13T08:22:39.142Z,23.44
2023-08-13T08:31:42.300Z,23.60
2023-08-13T08:34:09.734Z,23.73
2023-08-13T08:36:37.016Z,23.89
2023-08-13T08:39:05.156Z,24.14
2023-08-13T08:41:33.142Z,24.33
2023-08-13T08:44:00.616Z,24.28
2023-08-13T08:46:30.629Z,24.12
2023-08-13T08:48:59.859Z,23.89
2023-08-13T08:51:28.458Z,23.75
2023-08-13T08:53:57.284Z,23.98
2023-08-13T08:56:27.331Z,24.28
2023-08-13T08:58:54.775Z,24.53
2023-08-13T09:01:24.877Z,24.63
2023-08-13T09:03:52.826Z,24.48
2023-08-13T09:06:23.146Z,24.63
2023-08-13T09:08:53.859Z,24.59
2023-08-13T09:11:22.136Z,24.64
2023-08-13T09:13:51.840Z,24.82
2023-08-13T09:16:21.536Z,24.65
2023-08-13T09:19:04.533Z,24.85
2023-08-13T09:25:06.160Z,24.67
2023-08-13T09:27:34.783Z,24.83
2023-08-13T09:30:04.605Z,24.61
2023-08-13T09:32:33.894Z,24.66
2023-08-13T09:35:05.199Z,24.87
2023-08-13T09:37:34.635Z,24.81
2023-08-13T09:40:02.510Z,24.91
2023-08-13T09:42:33.621Z,25.02
2023-08-13T09:45:05.146Z,25.28
2023-08-13T09:47:34.638Z,24.94
2023-08-13T09:50:03.960Z,25.23
2023-08-13T09:52:32.979Z,25.32
2023-08-13T09:55:10.007Z,25.53
2023-08-13T09:57:40.089Z,25.65
2023-08-13T10:00:10.958Z,25.95
2023-08-13T10:02:42.439Z,26.09
2023-08-13T10:05:11.951Z,25.94
2023-08-13T10:07:40.959Z,26.19
2023-08-13T10:10:10.026Z,26.40
2023-08-13T10:12:38.982Z,26.61
2023-08-13T10:15:06.981Z,26.84
2023-08-13T10:21:45.331Z,27.09
2023-08-13T10:24:14.825Z,27.40
2023-08-13T10:26:46.328Z,27.62
2023-08-13T10:29:17.236Z,27.65
2023-08-13T10:32:12.103Z,27.59
2023-08-13T10:34:52.099Z,27.42
2023-08-13T10:37:20.249Z,27.66
2023-08-13T10:39:49.049Z,27.43
2023-08-13T10:42:28.607Z,27.19
2023-08-13T10:45:05.797Z,27.19
2023-08-13T10:47:39.991Z,26.94
2023-08-13T10:50:08.775Z,27.19
2023-08-13T10:52:37.090Z,27.40
2023-08-13T10:55:05.187Z,27.54
2023-08-13T10:57:32.510Z,27.75
2023-08-13T11:00:00.034Z,28.16
2023-08-13T11:02:29.801Z,28.20
2023-08-13T11:04:57.494Z,28.09
2023-08-13T11:07:24.915Z,27.36
2023-08-13T11:09:52.179Z,26.96
2023-08-13T11:12:20.739Z,27.11
2023-08-13T11:14:48.061Z,27.12
2023-08-13T11:17:40.190Z,27.17
2023-08-13T11:20:08.530Z,27.85
2023-08-13T11:22:35.790Z,27.69
2023-08-13T11:25:03.135Z,27.63
2023-08-13T11:27:30.836Z,27.38
2023-08-13T11:29:59.543Z,27.68
2023-08-13T11:32:26.937Z,27.83
2023-08-13T11:34:54.246Z,27.59
2023-08-13T11:37:22.028Z,27.55
2023-08-13T11:39:49.367Z,27.97
2023-08-13T11:42:17.007Z,28.41
2023-08-13T11:44:49.045Z,28.41
2023-08-13T11:47:30.037Z,28.77
2023-08-13T11:50:00.210Z,29.02
2023-08-13T11:52:27.776Z,28.66
2023-08-13T11:54:57.999Z,28.32
2023-08-13T11:57:25.363Z,28.38
2023-08-13T11:59:52.666Z,28.73
2023-08-13T12:02:20.596Z,28.90
2023-08-13T12:04:49.339Z,29.26
2023-08-13T12:07:16.887Z,29.82
2023-08-13T12:09:44.569Z,30.27
2023-08-13T12:12:11.857Z,30.70
2023-08-13T12:14:46.140Z,30.11
2023-08-13T12:17:40.207Z,29.29
2023-08-13T12:20:08.345Z,29.58
2023-08-13T12:22:35.791Z,30.26
2023-08-13T12:25:03.199Z,30.04
2023-08-13T12:27:30.505Z,29.55
2023-08-13T12:29:57.935Z,29.87
2023-08-13T12:32:25.212Z,30.31
2023-08-13T12:34:52.609Z,30.27
2023-08-13T12:37:20.196Z,30.07
2023-08-13T12:39:47.543Z,29.98
2023-08-13T12:42:15.118Z,29.60
2023-08-13T12:44:42.551Z,29.71
2023-08-13T12:47:10.662Z,30.26
2023-08-13T12:49:37.943Z,30.91
2023-08-13T12:52:05.767Z,31.35
2023-08-13T12:54:36.095Z,31.62
2023-08-13T12:57:03.493Z,31.68
2023-08-13T12:59:30.778Z,31.47
2023-08-13T13:01:58.174Z,31.78
2023-08-13T13:04:25.460Z,31.71
2023-08-13T13:06:52.853Z,31.93
2023-08-13T13:09:20.220Z,31.87
2023-08-13T13:11:47.716Z,32.34
2023-08-13T13:14:15.001Z,32.84
2023-08-13T13:16:42.511Z,33.26
2023-08-13T13:19:09.835Z,33.63
2023-08-13T13:21:37.164Z,32.53
2023-08-13T13:24:04.995Z,32.99
2023-08-13T13:26:32.372Z,33.39
2023-08-13T13:28:59.924Z,33.43
2023-08-13T13:31:27.382Z,32.90
2023-08-13T13:33:54.777Z,33.11
2023-08-13T13:36:22.049Z,32.24
2023-08-13T13:38:49.802Z,32.71
2023-08-13T13:41:17.133Z,33.11
2023-08-13T13:43:44.440Z,33.22
2023-08-13T13:46:11.755Z,33.38
2023-08-13T13:48:39.126Z,33.51
2023-08-13T13:51:06.703Z,33.49
2023-08-13T13:53:34.028Z,32.72
2023-08-13T13:56:01.389Z,32.42
2023-08-13T13:58:28.840Z,32.41
2023-08-13T14:00:56.418Z,32.62
2023-08-13T14:03:23.964Z,32.95
2023-08-13T14:05:55.273Z,33.27
2023-08-13T14:08:23.809Z,33.56
2023-08-13T14:10:51.137Z,33.87
2023-08-13T14:13:18.427Z,33.19
2023-08-13T14:15:46.064Z,33.20
2023-08-13T14:18:13.607Z,33.02
2023-08-13T14:20:40.894Z,32.91
2023-08-13T14:23:08.280Z,32.88
2023-08-13T14:25:35.527Z,32.79
2023-08-13T14:28:04.434Z,32.10
2023-08-13T14:30:35.525Z,32.15
2023-08-13T14:33:03.363Z,31.22
2023-08-13T14:35:30.952Z,30.96
2023-08-13T14:37:58.894Z,31.18
2023-08-13T14:40:26.217Z,31.65
2023-08-13T14:42:53.501Z,31.58
2023-08-13T14:45:20.778Z,31.95
2023-08-13T14:47:48.323Z,32.17
2023-08-13T14:50:15.789Z,32.49
2023-08-13T14:52:43.163Z,32.59
2023-08-13T14:55:10.565Z,32.54
2023-08-13T14:57:37.907Z,32.17
2023-08-13T15:00:09.212Z,33.01
2023-08-13T15:02:37.313Z,33.69
2023-08-13T15:05:05.266Z,34.45
2023-08-13T15:07:32.803Z,34.61
2023-08-13T15:10:00.618Z,33.63
2023-08-13T15:12:40.927Z,34.12
2023-08-13T15:15:11.892Z,34.34
2023-08-13T15:17:39.504Z,34.34
2023-08-13T15:20:08.892Z,34.07
2023-08-13T15:26:42.105Z,33.91
2023-08-13T15:29:09.445Z,34.67
2023-08-13T15:31:36.788Z,34.67
2023-08-13T15:34:04.461Z,34.91
2023-08-13T15:36:33.412Z,35.63
2023-08-13T15:39:00.697Z,35.67
2023-08-13T15:41:27.988Z,35.76
2023-08-13T15:43:55.441Z,35.30
2023-08-13T15:46:23.051Z,34.76
2023-08-13T15:48:50.429Z,34.24
2023-08-13T15:51:17.742Z,33.79
2023-08-13T15:53:45.720Z,33.16
2023-08-13T15:56:13.135Z,32.58
2023-08-13T15:58:40.780Z,32.17
2023-08-13T16:01:08.320Z,31.62
2023-08-13T16:03:35.812Z,31.18
2023-08-13T16:06:03.438Z,30.76
2023-08-13T16:08:30.794Z,30.53
2023-08-13T16:10:59.465Z,30.51
2023-08-13T16:13:27.857Z,30.40
2023-08-13T16:15:55.389Z,30.31
2023-08-13T16:18:23.014Z,30.31
2023-08-13T16:24:31.261Z,30.45
2023-08-13T16:26:58.765Z,30.55
2023-08-13T16:29:26.407Z,30.39
2023-08-13T16:31:55.461Z,30.12
2023-08-13T16:34:23.953Z,30.00
2023-08-13T16:36:51.331Z,29.80
2023-08-13T16:39:19.141Z,29.64
2023-08-13T16:41:46.400Z,29.50
2023-08-13T16:44:13.779Z,29.35
2023-08-13T16:46:41.327Z,29.23
2023-08-13T16:49:08.742Z,29.17
2023-08-13T16:51:36.415Z,29.01
2023-08-13T16:54:04.214Z,28.96
2023-08-13T16:56:36.789Z,28.91
2023-08-13T16:59:04.403Z,28.87
2023-08-13T17:01:32.744Z,28.67
2023-08-13T17:04:00.800Z,28.52
2023-08-13T17:06:28.128Z,28.47
2023-08-13T17:08:55.707Z,28.21
2023-08-13T17:11:23.088Z,28.05
2023-08-13T17:13:50.533Z,27.87
2023-08-13T17:16:17.937Z,27.68
2023-08-13T17:18:45.260Z,27.50
2023-08-13T17:21:12.697Z,27.34
2023-08-13T17:23:40.061Z,27.24
2023-08-13T17:26:07.498Z,27.17
2023-08-13T17:28:34.841Z,27.04
2023-08-13T17:31:02.351Z,26.95
2023-08-13T17:33:29.737Z,26.80
2023-08-13T17:35:57.234Z,26.68
2023-08-13T17:38:24.869Z,26.50
2023-08-13T17:40:52.273Z,26.39
2023-08-13T17:43:19.670Z,26.25
2023-08-13T17:45:47.167Z,26.12
2023-08-13T17:48:16.464Z,25.98
2023-08-13T17:50:45.499Z,25.88
2023-08-13T17:53:13.109Z,25.71
2023-08-13T17:55:40.425Z,25.61
2023-08-13T17:58:07.863Z,25.48
2023-08-13T18:00:35.399Z,25.37
2023-08-13T18:03:03.228Z,25.30
2023-08-13T18:05:30.615Z,25.20
2023-08-13T18:08:04.604Z,25.12
2023-08-13T18:10:42.585Z,25.04
2023-08-13T18:13:09.939Z,24.97
2023-08-13T18:15:38.282Z,24.90
2023-08-13T18:18:07.197Z,24.81
2023-08-13T18:20:34.839Z,24.72
2023-08-13T18:23:02.321Z,24.65
2023-08-13T18:25:30.023Z,24.57
2023-08-13T18:28:00.248Z,24.49
2023-08-13T18:30:27.736Z,24.41
2023-08-13T18:32:55.178Z,24.34
2023-08-13T18:35:22.687Z,24.28
2023-08-13T18:37:50.017Z,24.19
2023-08-13T18:40:17.508Z,24.14
2023-08-13T18:42:44.866Z,24.11
2023-08-13T18:45:13.339Z,24.07
2023-08-13T18:47:40.810Z,24.02
2023-08-13T18:50:08.772Z,23.95
2023-08-13T18:52:37.886Z,23.89
2023-08-13T18:55:05.785Z,23.83
2023-08-13T18:57:33.708Z,23.77
2023-08-13T19:00:01.422Z,23.72
2023-08-13T19:02:28.903Z,23.66
2023-08-13T19:04:57.706Z,23.62
2023-08-13T19:07:25.046Z,23.59
2023-08-13T19:09:52.435Z,23.56
2023-08-13T19:12:20.975Z,23.54
2023-08-13T19:14:49.767Z,23.49
2023-08-13T19:17:17.990Z,23.47
2023-08-13T19:19:45.309Z,23.45
2023-08-13T19:22:12.678Z,23.42
2023-08-13T19:24:40.624Z,23.39
2023-08-13T19:27:10.538Z,23.35
2023-08-13T19:29:38.105Z,23.32
2023-08-13T19:32:05.722Z,23.30
2023-08-13T19:34:33.157Z,23.27
2023-08-13T19:37:00.701Z,23.24
2023-08-13T19:39:30.409Z,23.21
2023-08-13T19:41:57.899Z,23.18
2023-08-13T19:44:36.368Z,23.14
2023-08-13T19:47:07.545Z,23.10
2023-08-13T19:49:41.126Z,23.06
2023-08-13T19:52:12.105Z,23.02
2023-08-13T19:54:39.515Z,22.97
2023-08-13T19:57:06.945Z,22.94
2023-08-13T19:59:34.336Z,22.91
2023-08-13T20:02:01.676Z,22.87
2023-08-13T20:04:29.096Z,22.83
2023-08-13T20:06:56.472Z,22.78
2023-08-13T20:09:23.892Z,22.75
2023-08-13T20:11:51.135Z,22.71
2023-08-13T20:14:18.481Z,22.68
2023-08-13T20:16:45.951Z,22.65
2023-08-13T20:19:14.115Z,22.63
2023-08-13T20:21:52.589Z,22.60
2023-08-13T20:24:21.368Z,22.58
2023-08-13T20:26:49.340Z,22.54
2023-08-13T20:29:21.069Z,22.50
2023-08-13T20:31:48.526Z,22.45
2023-08-13T20:34:16.206Z,22.41
2023-08-13T20:36:43.848Z,22.37
2023-08-13T20:39:12.356Z,22.33
2023-08-13T20:41:40.385Z,22.28
2023-08-13T20:44:07.904Z,22.23
2023-08-13T20:46:35.216Z,22.19
2023-08-13T20:49:07.712Z,22.14
2023-08-13T20:51:35.577Z,22.08
2023-08-13T20:54:03.231Z,22.03
2023-08-13T20:56:30.670Z,22.02
2023-08-13T20:58:58.211Z,21.98
2023-08-13T21:01:25.681Z,21.94
2023-08-13T21:03:53.743Z,21.89
2023-08-13T21:06:21.212Z,21.85
2023-08-13T21:08:48.934Z,21.80
2023-08-13T21:11:17.444Z,21.76
2023-08-13T21:13:44.919Z,21.70
2023-08-13T21:16:12.522Z,21.67
2023-08-13T21:18:39.947Z,21.64
2023-08-13T21:21:07.490Z,21.59
2023-08-13T21:23:35.062Z,21.54
2023-08-13T21:26:02.929Z,21.51
2023-08-13T21:28:30.316Z,21.48
2023-08-13T21:30:57.738Z,21.43
2023-08-13T21:33:25.106Z,21.40
2023-08-13T21:35:53.058Z,21.34
2023-08-13T21:38:20.967Z,21.32
2023-08-13T21:40:48.293Z,21.30
2023-08-13T21:43:15.654Z,21.28
2023-08-13T21:45:43.086Z,21.25
2023-08-13T21:48:10.583Z,21.22
2023-08-13T21:50:37.964Z,21.19
2023-08-13T21:53:05.525Z,21.15
2023-08-13T21:55:33.091Z,21.13
2023-08-13T21:58:00.639Z,21.08
2023-08-13T22:00:27.976Z,21.06
2023-08-13T22:02:55.454Z,21.03
2023-08-13T22:05:24.329Z,21.01
2023-08-13T22:07:52.064Z,21.00
2023-08-13T22:10:19.397Z,20.97
2023-08-13T22:12:46.751Z,20.98
2023-08-13T22:15:39.271Z,20.99
2023-08-13T22:26:05.264Z,21.00
2023-08-13T22:36:30.877Z,20.96
2023-08-13T22:38:58.218Z,20.96
2023-08-13T22:41:26.551Z,20.97
2023-08-13T22:43:53.947Z,20.97
2023-08-13T22:46:21.592Z,20.97
2023-08-13T22:52:34.008Z,20.92
2023-08-13T22:55:26.722Z,20.89
2023-08-13T22:57:55.128Z,20.87
2023-08-13T23:00:22.484Z,20.84
2023-08-13T23:02:49.861Z,20.80
2023-08-13T23:05:17.330Z,20.78
2023-08-13T23:07:44.869Z,20.72
2023-08-13T23:10:12.189Z,20.69
2023-08-13T23:12:39.518Z,20.67
2023-08-13T23:15:07.392Z,20.63
2023-08-13T23:17:34.988Z,20.59
2023-08-13T23:20:02.413Z,20.56
2023-08-13T23:22:29.703Z,20.52
2023-08-13T23:24:57.431Z,20.48
2023-08-13T23:27:39.693Z,20.43
2023-08-13T23:30:07.604Z,20.39
2023-08-13T23:32:36.628Z,20.35
2023-08-13T23:35:05.000Z,20.32
2023-08-13T23:37:32.268Z,20.29
2023-08-13T23:39:59.670Z,20.25
2023-08-13T23:42:27.116Z,20.23
2023-08-13T23:44:54.454Z,20.18
2023-08-13T23:47:21.827Z,20.15
2023-08-13T23:49:49.212Z,20.12
2023-08-13T23:52:16.705Z,20.11
2023-08-13T23:54:44.237Z,20.07
2023-08-13T23:57:11.635Z,20.00
2023-08-13T23:59:38.981Z,19.88
